nws-alerts: Checking more than four warning/county codes can delay the loading of your pages. You should use a cron job to get the data.
EllijayWeather Station Historical Data
Daily Summary for March 13, 2019 Units:  Both    English   Metric
Daily Weekly Monthly Yearly Custom
  High: Low: Average:
Temperature: 63.7 °F /  17.6 °C 45.1 °F /  7.3 °C 56.3 °F /  13.5 °C
Dew Point: 43.7 °F /  6.5 °C 34.9 °F /  1.6 °C 39.5 °F /  4.2 °C
Humidity: 88% 40% 55%
Wind Speed: 6.0mph /  9.7km/h - 0.4mph /  0.6km/h
Wind Gust: 11.0mph /  17.7km/h - -
Wind- - SE
Pressure: 30.31 in /  1026.3 hPa 30.16 in /  1021.2 hPa -
Precipitation: 0.00 in /  0 mm    
Historical Graphs
 
 
Tabular Data for March 13, 2019
Time Temperature Dew Point Pressure Wind Wind Speed Wind Gust Humidity Rainfall Rate (Hourly) solar
00:04 45.3 °F /  7.4 °C 41.4 °F /  5.2 °C 30.30in /  1026hPa Calm     86% 0.00in /  0mm meteobridge W/m2
00:09 45.1 °F /  7.3 °C 41.2 °F /  5.1 °C 30.30in /  1026hPa Calm     86% 0.00in /  0mm meteobridge W/m2
00:14 45.1 °F /  7.3 °C 41.2 °F /  5.1 °C 30.30in /  1026hPa Calm     86% 0.00in /  0mm meteobridge W/m2
00:19 45.1 °F /  7.3 °C 41.2 °F /  5.1 °C 30.30in /  1026hPa Calm     86% 0.00in /  0mm meteobridge W/m2
00:24 45.1 °F /  7.3 °C 41.2 °F /  5.1 °C 30.31in /  1026.3hPa Calm     86% 0.00in /  0mm meteobridge W/m2
00:29 45.1 °F /  7.3 °C 41.5 °F /  5.3 °C 30.31in /  1026.3hPa Calm     87% 0.00in /  0mm meteobridge W/m2
00:34 45.1 °F /  7.3 °C 41.2 °F /  5.1 °C 30.31in /  1026.3hPa Calm     86% 0.00in /  0mm meteobridge W/m2
00:39 45.1 °F /  7.3 °C 41.2 °F /  5.1 °C 30.31in /  1026.3hPa Calm     86% 0.00in /  0mm meteobridge W/m2
00:44 45.1 °F /  7.3 °C 41.2 °F /  5.1 °C 30.30in /  1026hPa Calm     86% 0.00in /  0mm meteobridge W/m2
00:49 45.1 °F /  7.3 °C 41.5 °F /  5.3 °C 30.29in /  1025.6hPa Calm     87% 0.00in /  0mm meteobridge W/m2
00:54 45.3 °F /  7.4 °C 41.9 °F /  5.5 °C 30.28in /  1025.3hPa Calm     88% 0.00in /  0mm meteobridge W/m2
00:59 45.3 °F /  7.4 °C 41.9 °F /  5.5 °C 30.28in /  1025.3hPa Calm     88% 0.00in /  0mm meteobridge W/m2
01:04 45.3 °F /  7.4 °C 41.7 °F /  5.4 °C 30.28in /  1025.3hPa Calm     87% 0.00in /  0mm meteobridge W/m2
01:09 45.5 °F /  7.5 °C 41.9 °F /  5.5 °C 30.27in /  1024.9hPa Calm     87% 0.00in /  0mm meteobridge W/m2
01:14 45.7 °F /  7.6 °C 42.1 °F /  5.6 °C 30.27in /  1024.9hPa Calm     87% 0.00in /  0mm meteobridge W/m2
01:19 45.7 °F /  7.6 °C 41.7 °F /  5.4 °C 30.27in /  1024.9hPa Calm     86% 0.00in /  0mm meteobridge W/m2
01:24 45.9 °F /  7.7 °C 42.3 °F /  5.7 °C 30.26in /  1024.6hPa Calm     87% 0.00in /  0mm meteobridge W/m2
01:29 45.9 °F /  7.7 °C 41.9 °F /  5.5 °C 30.26in /  1024.6hPa Calm     86% 0.00in /  0mm meteobridge W/m2
01:34 46.0 °F /  7.8 °C 42.4 °F /  5.8 °C 30.26in /  1024.6hPa Calm     87% 0.00in /  0mm meteobridge W/m2
01:39 46.0 °F /  7.8 °C 42.4 °F /  5.8 °C 30.25in /  1024.3hPa Calm     87% 0.00in /  0mm meteobridge W/m2
01:44 46.2 °F /  7.9 °C 42.3 °F /  5.7 °C 30.25in /  1024.3hPa Calm     86% 0.00in /  0mm meteobridge W/m2
01:49 46.2 °F /  7.9 °C 42.3 °F /  5.7 °C 30.25in /  1024.3hPa Calm     86% 0.00in /  0mm meteobridge W/m2
01:54 46.6 °F /  8.1 °C 42.6 °F /  5.9 °C 30.25in /  1024.3hPa Calm     86% 0.00in /  0mm meteobridge W/m2
01:59 46.8 °F /  8.2 °C 42.4 °F /  5.8 °C 30.24in /  1023.9hPa Calm     85% 0.00in /  0mm meteobridge W/m2
02:04 46.9 °F /  8.3 °C 42.6 °F /  5.9 °C 30.23in /  1023.6hPa Calm     85% 0.00in /  0mm meteobridge W/m2
02:09 47.5 °F /  8.6 °C 42.8 °F /  6 °C 30.23in /  1023.6hPa Calm     84% 0.00in /  0mm meteobridge W/m2
02:14 48.0 °F /  8.9 °C 43.3 °F /  6.3 °C 30.24in /  1023.9hPa Calm     84% 0.00in /  0mm meteobridge W/m2
02:19 48.9 °F /  9.4 °C 43.7 °F /  6.5 °C 30.24in /  1023.9hPa Calm     82% 0.00in /  0mm meteobridge W/m2
02:24 49.5 °F /  9.7 °C 42.8 °F /  6 °C 30.24in /  1023.9hPa Calm     78% 0.00in /  0mm meteobridge W/m2
02:29 50.2 °F /  10.1 °C 43.3 °F /  6.3 °C 30.24in /  1023.9hPa Calm     77% 0.00in /  0mm meteobridge W/m2
02:34 50.9 °F /  10.5 °C 43.0 °F /  6.1 °C 30.24in /  1023.9hPa Calm     74% 0.00in /  0mm meteobridge W/m2
02:39 51.8 °F /  11 °C 43.3 °F /  6.3 °C 30.23in /  1023.6hPa Calm     73% 0.00in /  0mm meteobridge W/m2
02:44 52.5 °F /  11.4 °C 43.0 °F /  6.1 °C 30.23in /  1023.6hPa Calm     70% 0.00in /  0mm meteobridge W/m2
02:49 53.6 °F /  12 °C 42.4 °F /  5.8 °C 30.24in /  1023.9hPa Calm   1.0mph /  1.6km/h 66% 0.00in /  0mm meteobridge W/m2
02:54 54.1 °F /  12.3 °C 43.3 °F /  6.3 °C 30.24in /  1023.9hPa SE 4.0mph /  6.4km/h 4.0mph /  6.4km/h 67% 0.00in /  0mm meteobridge W/m2
02:59 54.9 °F /  12.7 °C 42.4 °F /  5.8 °C 30.23in /  1023.6hPa Calm   4.0mph /  6.4km/h 63% 0.00in /  0mm meteobridge W/m2
03:04 55.0 °F /  12.8 °C 41.9 °F /  5.5 °C 30.23in /  1023.6hPa Calm   2.0mph /  3.2km/h 61% 0.00in /  0mm meteobridge W/m2
03:09 55.6 °F /  13.1 °C 42.8 °F /  6 °C 30.24in /  1023.9hPa Calm   5.0mph /  8km/h 62% 0.00in /  0mm meteobridge W/m2
03:14 55.8 °F /  13.2 °C 43.0 °F /  6.1 °C 30.23in /  1023.6hPa Calm     62% 0.00in /  0mm meteobridge W/m2
03:19 55.6 °F /  13.1 °C 41.9 °F /  5.5 °C 30.23in /  1023.6hPa Calm   1.0mph /  1.6km/h 60% 0.00in /  0mm meteobridge W/m2
03:24 55.8 °F /  13.2 °C 42.1 °F /  5.6 °C 30.23in /  1023.6hPa SE 0.9mph /  1.4km/h 5.0mph /  8km/h 60% 0.00in /  0mm meteobridge W/m2
03:29 55.9 °F /  13.3 °C 41.4 °F /  5.2 °C 30.22in /  1023.2hPa SE 4.0mph /  6.4km/h 11.0mph /  17.7km/h 58% 0.00in /  0mm meteobridge W/m2
03:34 56.5 °F /  13.6 °C 41.9 °F /  5.5 °C 30.22in /  1023.2hPa SE 0.9mph /  1.4km/h 4.0mph /  6.4km/h 58% 0.00in /  0mm meteobridge W/m2
03:39 56.5 °F /  13.6 °C 42.3 °F /  5.7 °C 30.22in /  1023.2hPa Calm   4.0mph /  6.4km/h 59% 0.00in /  0mm meteobridge W/m2
03:44 56.1 °F /  13.4 °C 41.5 °F /  5.3 °C 30.23in /  1023.6hPa SE 2.0mph /  3.2km/h 4.0mph /  6.4km/h 58% 0.00in /  0mm meteobridge W/m2
03:49 56.1 °F /  13.4 °C 41.2 °F /  5.1 °C 30.23in /  1023.6hPa Calm   2.0mph /  3.2km/h 57% 0.00in /  0mm meteobridge W/m2
03:54 55.9 °F /  13.3 °C 41.9 °F /  5.5 °C 30.23in /  1023.6hPa Calm     59% 0.00in /  0mm meteobridge W/m2
03:59 55.8 °F /  13.2 °C 41.7 °F /  5.4 °C 30.24in /  1023.9hPa Calm     59% 0.00in /  0mm meteobridge W/m2
04:04 55.2 °F /  12.9 °C 41.2 °F /  5.1 °C 30.24in /  1023.9hPa Calm     59% 0.00in /  0mm meteobridge W/m2
04:09 55.0 °F /  12.8 °C 41.4 °F /  5.2 °C 30.23in /  1023.6hPa SE 0.9mph /  1.4km/h 4.0mph /  6.4km/h 60% 0.00in /  0mm meteobridge W/m2
04:14 55.0 °F /  12.8 °C 41.4 °F /  5.2 °C 30.23in /  1023.6hPa Calm   2.0mph /  3.2km/h 60% 0.00in /  0mm meteobridge W/m2
04:19 55.0 °F /  12.8 °C 41.0 °F /  5 °C 30.24in /  1023.9hPa ESE 0.9mph /  1.4km/h 1.0mph /  1.6km/h 59% 0.00in /  0mm meteobridge W/m2
04:24 55.0 °F /  12.8 °C 41.0 °F /  5 °C 30.24in /  1023.9hPa Calm     59% 0.00in /  0mm meteobridge W/m2
04:29 54.9 °F /  12.7 °C 41.2 °F /  5.1 °C 30.24in /  1023.9hPa Calm     60% 0.00in /  0mm meteobridge W/m2
04:34 54.7 °F /  12.6 °C 40.6 °F /  4.8 °C 30.24in /  1023.9hPa Calm   2.0mph /  3.2km/h 59% 0.00in /  0mm meteobridge W/m2
04:39 54.3 °F /  12.4 °C 41.5 °F /  5.3 °C 30.24in /  1023.9hPa Calm     62% 0.00in /  0mm meteobridge W/m2
04:44 54.1 °F /  12.3 °C 40.6 °F /  4.8 °C 30.24in /  1023.9hPa Calm   2.0mph /  3.2km/h 60% 0.00in /  0mm meteobridge W/m2
04:49 54.1 °F /  12.3 °C 40.1 °F /  4.5 °C 30.24in /  1023.9hPa Calm   6.0mph /  9.7km/h 59% 0.00in /  0mm meteobridge W/m2
04:54 54.3 °F /  12.4 °C 39.9 °F /  4.4 °C 30.24in /  1023.9hPa Calm   2.0mph /  3.2km/h 58% 0.00in /  0mm meteobridge W/m2
04:59 54.1 °F /  12.3 °C 40.1 °F /  4.5 °C 30.24in /  1023.9hPa East 2.0mph /  3.2km/h 6.0mph /  9.7km/h 59% 0.00in /  0mm meteobridge W/m2
05:04 54.1 °F /  12.3 °C 40.1 °F /  4.5 °C 30.24in /  1023.9hPa Calm     59% 0.00in /  0mm meteobridge W/m2
05:09 54.0 °F /  12.2 °C 39.9 °F /  4.4 °C 30.24in /  1023.9hPa Calm     59% 0.00in /  0mm meteobridge W/m2
05:14 53.6 °F /  12 °C 40.1 °F /  4.5 °C 30.24in /  1023.9hPa Calm   1.0mph /  1.6km/h 60% 0.00in /  0mm meteobridge W/m2
05:19 53.4 °F /  11.9 °C 39.9 °F /  4.4 °C 30.24in /  1023.9hPa Calm   1.0mph /  1.6km/h 60% 0.00in /  0mm meteobridge W/m2
05:24 53.2 °F /  11.8 °C 39.7 °F /  4.3 °C 30.24in /  1023.9hPa SE 2.0mph /  3.2km/h 2.0mph /  3.2km/h 60% 0.00in /  0mm meteobridge W/m2
05:29 53.1 °F /  11.7 °C 39.9 °F /  4.4 °C 30.24in /  1023.9hPa Calm     61% 0.00in /  0mm meteobridge W/m2
05:34 53.1 °F /  11.7 °C 39.6 °F /  4.2 °C 30.24in /  1023.9hPa Calm     60% 0.00in /  0mm meteobridge W/m2
05:39 52.9 °F /  11.6 °C 39.7 °F /  4.3 °C 30.24in /  1023.9hPa Calm     61% 0.00in /  0mm meteobridge W/m2
05:44 52.5 °F /  11.4 °C 39.9 °F /  4.4 °C 30.24in /  1023.9hPa Calm   2.0mph /  3.2km/h 62% 0.00in /  0mm meteobridge W/m2
05:49 52.3 °F /  11.3 °C 39.7 °F /  4.3 °C 30.24in /  1023.9hPa Calm     62% 0.00in /  0mm meteobridge W/m2
05:54 52.2 °F /  11.2 °C 39.2 °F /  4 °C 30.24in /  1023.9hPa SE 2.0mph /  3.2km/h 5.0mph /  8km/h 61% 0.00in /  0mm meteobridge W/m2
05:59 52.3 °F /  11.3 °C 39.4 °F /  4.1 °C 30.25in /  1024.3hPa Calm     61% 0.00in /  0mm meteobridge W/m2
06:04 52.3 °F /  11.3 °C 39.7 °F /  4.3 °C 30.24in /  1023.9hPa Calm     62% 0.00in /  0mm meteobridge W/m2
06:09 52.2 °F /  11.2 °C 39.9 °F /  4.4 °C 30.24in /  1023.9hPa Calm   1.0mph /  1.6km/h 63% 0.00in /  0mm meteobridge W/m2
06:14 52.2 °F /  11.2 °C 39.9 °F /  4.4 °C 30.24in /  1023.9hPa Calm     63% 0.00in /  0mm meteobridge W/m2
06:19 51.6 °F /  10.9 °C 39.9 °F /  4.4 °C 30.24in /  1023.9hPa Calm     64% 0.00in /  0mm meteobridge W/m2
06:24 51.3 °F /  10.7 °C 39.6 °F /  4.2 °C 30.23in /  1023.6hPa Calm   1.0mph /  1.6km/h 64% 0.00in /  0mm meteobridge W/m2
06:29 51.3 °F /  10.7 °C 39.6 °F /  4.2 °C 30.24in /  1023.9hPa Calm     64% 0.00in /  0mm meteobridge W/m2
06:34 51.3 °F /  10.7 °C 39.0 °F /  3.9 °C 30.24in /  1023.9hPa Calm     63% 0.00in /  0mm meteobridge W/m2
06:39 51.4 °F /  10.8 °C 39.7 °F /  4.3 °C 30.24in /  1023.9hPa Calm     64% 0.00in /  0mm meteobridge W/m2
06:44 51.1 °F /  10.6 °C 39.4 °F /  4.1 °C 30.24in /  1023.9hPa Calm   1.0mph /  1.6km/h 64% 0.00in /  0mm meteobridge W/m2
06:49 50.9 °F /  10.5 °C 39.6 °F /  4.2 °C 30.24in /  1023.9hPa Calm   2.0mph /  3.2km/h 65% 0.00in /  0mm meteobridge W/m2
06:54 51.1 °F /  10.6 °C 40.1 °F /  4.5 °C 30.24in /  1023.9hPa Calm     66% 0.00in /  0mm meteobridge W/m2
06:59 50.7 °F /  10.4 °C 39.4 °F /  4.1 °C 30.24in /  1023.9hPa Calm     65% 0.00in /  0mm meteobridge W/m2
07:04 50.5 °F /  10.3 °C 39.2 °F /  4 °C 30.24in /  1023.9hPa Calm     65% 0.00in /  0mm meteobridge W/m2
07:09 50.5 °F /  10.3 °C 40.5 °F /  4.7 °C 30.24in /  1023.9hPa Calm     68% 0.00in /  0mm meteobridge W/m2
07:14 50.2 °F /  10.1 °C 39.6 °F /  4.2 °C 30.24in /  1023.9hPa Calm   4.0mph /  6.4km/h 67% 0.00in /  0mm meteobridge W/m2
07:19 50.2 °F /  10.1 °C 39.6 °F /  4.2 °C 30.24in /  1023.9hPa Calm     67% 0.00in /  0mm meteobridge W/m2
07:24 50.2 °F /  10.1 °C 39.2 °F /  4 °C 30.25in /  1024.3hPa SE 0.9mph /  1.4km/h 1.0mph /  1.6km/h 66% 0.00in /  0mm meteobridge W/m2
07:29 50.5 °F /  10.3 °C 39.6 °F /  4.2 °C 30.25in /  1024.3hPa Calm     66% 0.00in /  0mm meteobridge W/m2
07:34 50.5 °F /  10.3 °C 39.2 °F /  4 °C 30.25in /  1024.3hPa Calm   2.0mph /  3.2km/h 65% 0.00in /  0mm meteobridge W/m2
07:39 50.5 °F /  10.3 °C 39.6 °F /  4.2 °C 30.25in /  1024.3hPa Calm     66% 0.00in /  0mm meteobridge W/m2
07:44 50.5 °F /  10.3 °C 40.5 °F /  4.7 °C 30.26in /  1024.6hPa Calm     68% 0.00in /  0mm meteobridge W/m2
07:49 50.5 °F /  10.3 °C 39.2 °F /  4 °C 30.25in /  1024.3hPa Calm   4.0mph /  6.4km/h 65% 0.00in /  0mm meteobridge W/m2
07:54 50.7 °F /  10.4 °C 39.7 °F /  4.3 °C 30.25in /  1024.3hPa Calm     66% 0.00in /  0mm meteobridge W/m2
07:59 50.7 °F /  10.4 °C 39.0 °F /  3.9 °C 30.25in /  1024.3hPa Calm   4.0mph /  6.4km/h 64% 0.00in /  0mm meteobridge W/m2
08:04 50.7 °F /  10.4 °C 39.7 °F /  4.3 °C 30.25in /  1024.3hPa Calm   1.0mph /  1.6km/h 66% 0.00in /  0mm meteobridge W/m2
08:09 50.5 °F /  10.3 °C 39.2 °F /  4 °C 30.25in /  1024.3hPa Calm   2.0mph /  3.2km/h 65% 0.00in /  0mm meteobridge W/m2
08:14 50.5 °F /  10.3 °C 39.9 °F /  4.4 °C 30.25in /  1024.3hPa Calm     67% 0.00in /  0mm meteobridge W/m2
08:19 50.4 °F /  10.2 °C 39.0 °F /  3.9 °C 30.25in /  1024.3hPa Calm   1.0mph /  1.6km/h 65% 0.00in /  0mm meteobridge W/m2
08:24 50.5 °F /  10.3 °C 38.8 °F /  3.8 °C 30.25in /  1024.3hPa Calm   2.0mph /  3.2km/h 64% 0.00in /  0mm meteobridge W/m2
08:29 50.7 °F /  10.4 °C 39.0 °F /  3.9 °C 30.25in /  1024.3hPa Calm   1.0mph /  1.6km/h 64% 0.00in /  0mm meteobridge W/m2
08:34 51.3 °F /  10.7 °C 38.7 °F /  3.7 °C 30.25in /  1024.3hPa Calm   4.0mph /  6.4km/h 62% 0.00in /  0mm meteobridge W/m2
08:39 51.6 °F /  10.9 °C 39.0 °F /  3.9 °C 30.25in /  1024.3hPa Calm   4.0mph /  6.4km/h 62% 0.00in /  0mm meteobridge W/m2
08:44 51.8 °F /  11 °C 39.2 °F /  4 °C 30.26in /  1024.6hPa Calm   1.0mph /  1.6km/h 62% 0.00in /  0mm meteobridge W/m2
08:49 52.0 °F /  11.1 °C 40.1 °F /  4.5 °C 30.25in /  1024.3hPa Calm     64% 0.00in /  0mm meteobridge W/m2
08:54 51.8 °F /  11 °C 39.2 °F /  4 °C 30.25in /  1024.3hPa SE 2.0mph /  3.2km/h 5.0mph /  8km/h 62% 0.00in /  0mm meteobridge W/m2
08:59 52.2 °F /  11.2 °C 39.2 °F /  4 °C 30.25in /  1024.3hPa Calm   1.0mph /  1.6km/h 61% 0.00in /  0mm meteobridge W/m2
09:04 52.3 °F /  11.3 °C 37.9 °F /  3.3 °C 30.25in /  1024.3hPa SE 0.9mph /  1.4km/h 5.0mph /  8km/h 58% 0.00in /  0mm meteobridge W/m2
09:09 52.9 °F /  11.6 °C 38.5 °F /  3.6 °C 30.26in /  1024.6hPa SE 2.0mph /  3.2km/h 5.0mph /  8km/h 58% 0.00in /  0mm meteobridge W/m2
09:14 53.2 °F /  11.8 °C 38.5 °F /  3.6 °C 30.26in /  1024.6hPa Calm   4.0mph /  6.4km/h 57% 0.00in /  0mm meteobridge W/m2
09:19 53.4 °F /  11.9 °C 38.1 °F /  3.4 °C 30.25in /  1024.3hPa SE 0.9mph /  1.4km/h 6.0mph /  9.7km/h 56% 0.00in /  0mm meteobridge W/m2
09:24 53.6 °F /  12 °C 38.3 °F /  3.5 °C 30.25in /  1024.3hPa SE 4.9mph /  7.9km/h 6.0mph /  9.7km/h 56% 0.00in /  0mm meteobridge W/m2
09:29 53.8 °F /  12.1 °C 37.9 °F /  3.3 °C 30.25in /  1024.3hPa ESE 0.9mph /  1.4km/h 6.0mph /  9.7km/h 55% 0.00in /  0mm meteobridge W/m2
09:34 53.8 °F /  12.1 °C 38.5 °F /  3.6 °C 30.25in /  1024.3hPa SE 0.9mph /  1.4km/h 2.0mph /  3.2km/h 56% 0.00in /  0mm meteobridge W/m2
09:39 53.8 °F /  12.1 °C 39.4 °F /  4.1 °C 30.26in /  1024.6hPa SE 0.9mph /  1.4km/h 2.0mph /  3.2km/h 58% 0.00in /  0mm meteobridge W/m2
09:44 54.0 °F /  12.2 °C 38.7 °F /  3.7 °C 30.25in /  1024.3hPa SE 0.9mph /  1.4km/h 4.0mph /  6.4km/h 56% 0.00in /  0mm meteobridge W/m2
09:49 54.0 °F /  12.2 °C 38.1 °F /  3.4 °C 30.25in /  1024.3hPa Calm   4.0mph /  6.4km/h 55% 0.00in /  0mm meteobridge W/m2
09:54 54.1 °F /  12.3 °C 38.3 °F /  3.5 °C 30.26in /  1024.6hPa SE 4.9mph /  7.9km/h 5.0mph /  8km/h 55% 0.00in /  0mm meteobridge W/m2
09:59 54.3 °F /  12.4 °C 37.6 °F /  3.1 °C 30.25in /  1024.3hPa Calm   4.0mph /  6.4km/h 53% 0.00in /  0mm meteobridge W/m2
10:04 54.5 °F /  12.5 °C 37.8 °F /  3.2 °C 30.25in /  1024.3hPa ESE 6.0mph /  9.7km/h 6.0mph /  9.7km/h 53% 0.00in /  0mm meteobridge W/m2
10:09 54.5 °F /  12.5 °C 37.8 °F /  3.2 °C 30.24in /  1023.9hPa Calm   2.0mph /  3.2km/h 53% 0.00in /  0mm meteobridge W/m2
10:14 54.7 °F /  12.6 °C 38.3 °F /  3.5 °C 30.24in /  1023.9hPa Calm   5.0mph /  8km/h 54% 0.00in /  0mm meteobridge W/m2
10:19 55.0 °F /  12.8 °C 38.3 °F /  3.5 °C 30.24in /  1023.9hPa SE 4.0mph /  6.4km/h 5.0mph /  8km/h 53% 0.00in /  0mm meteobridge W/m2
10:24 55.0 °F /  12.8 °C 38.3 °F /  3.5 °C 30.24in /  1023.9hPa Calm   4.0mph /  6.4km/h 53% 0.00in /  0mm meteobridge W/m2
10:29 55.0 °F /  12.8 °C 38.3 °F /  3.5 °C 30.25in /  1024.3hPa Calm   4.0mph /  6.4km/h 53% 0.00in /  0mm meteobridge W/m2
10:34 54.9 °F /  12.7 °C 38.5 °F /  3.6 °C 30.25in /  1024.3hPa Calm   4.0mph /  6.4km/h 54% 0.00in /  0mm meteobridge W/m2
10:39 54.9 °F /  12.7 °C 38.5 °F /  3.6 °C 30.24in /  1023.9hPa ESE 4.0mph /  6.4km/h 4.0mph /  6.4km/h 54% 0.00in /  0mm meteobridge W/m2
10:44 54.9 °F /  12.7 °C 39.0 °F /  3.9 °C 30.24in /  1023.9hPa Calm     55% 0.00in /  0mm meteobridge W/m2
10:49 54.9 °F /  12.7 °C 39.0 °F /  3.9 °C 30.23in /  1023.6hPa Calm   1.0mph /  1.6km/h 55% 0.00in /  0mm meteobridge W/m2
10:54 54.7 °F /  12.6 °C 38.8 °F /  3.8 °C 30.22in /  1023.2hPa SE 4.0mph /  6.4km/h 4.0mph /  6.4km/h 55% 0.00in /  0mm meteobridge W/m2
10:59 54.7 °F /  12.6 °C 39.4 °F /  4.1 °C 30.22in /  1023.2hPa Calm   4.0mph /  6.4km/h 56% 0.00in /  0mm meteobridge W/m2
11:04 54.7 °F /  12.6 °C 39.4 °F /  4.1 °C 30.27in /  1024.9hPa East 2.0mph /  3.2km/h 4.0mph /  6.4km/h 56% 0.00in /  0mm meteobridge W/m2
11:09 54.7 °F /  12.6 °C 39.4 °F /  4.1 °C 30.28in /  1025.3hPa Calm     56% 0.00in /  0mm meteobridge W/m2
11:14 54.7 °F /  12.6 °C 39.7 °F /  4.3 °C 30.27in /  1024.9hPa Calm     57% 0.00in /  0mm meteobridge W/m2
11:19 55.0 °F /  12.8 °C 40.1 °F /  4.5 °C 30.28in /  1025.3hPa Calm     57% 0.00in /  0mm meteobridge W/m2
11:24 55.4 °F /  13 °C 39.6 °F /  4.2 °C 30.28in /  1025.3hPa Calm     55% 0.00in /  0mm meteobridge W/m2
11:29 55.9 °F /  13.3 °C 40.5 °F /  4.7 °C 30.27in /  1024.9hPa East 0.9mph /  1.4km/h 1.0mph /  1.6km/h 56% 0.00in /  0mm meteobridge W/m2
11:34 57.0 °F /  13.9 °C 41.0 °F /  5 °C 30.27in /  1024.9hPa East 0.9mph /  1.4km/h 1.0mph /  1.6km/h 55% 0.00in /  0mm meteobridge W/m2
11:39 57.9 °F /  14.4 °C 40.5 °F /  4.7 °C 30.25in /  1024.3hPa ESE 4.0mph /  6.4km/h 6.0mph /  9.7km/h 52% 0.00in /  0mm meteobridge W/m2
11:44 58.3 °F /  14.6 °C 40.3 °F /  4.6 °C 30.26in /  1024.6hPa SSE 2.0mph /  3.2km/h 5.0mph /  8km/h 51% 0.00in /  0mm meteobridge W/m2
11:49 58.5 °F /  14.7 °C 40.5 °F /  4.7 °C 30.26in /  1024.6hPa SE 4.9mph /  7.9km/h 5.0mph /  8km/h 51% 0.00in /  0mm meteobridge W/m2
11:54 58.6 °F /  14.8 °C 41.0 °F /  5 °C 30.26in /  1024.6hPa Calm   4.0mph /  6.4km/h 52% 0.00in /  0mm meteobridge W/m2
11:59 58.6 °F /  14.8 °C 41.0 °F /  5 °C 30.26in /  1024.6hPa Calm   6.0mph /  9.7km/h 52% 0.00in /  0mm meteobridge W/m2
12:04 58.5 °F /  14.7 °C 40.8 °F /  4.9 °C 30.26in /  1024.6hPa ESE 2.0mph /  3.2km/h 2.0mph /  3.2km/h 52% 0.00in /  0mm meteobridge W/m2
12:09 58.5 °F /  14.7 °C 41.4 °F /  5.2 °C 30.27in /  1024.9hPa South 0.9mph /  1.4km/h 4.0mph /  6.4km/h 53% 0.00in /  0mm meteobridge W/m2
12:14 58.5 °F /  14.7 °C 40.8 °F /  4.9 °C 30.27in /  1024.9hPa Calm   4.0mph /  6.4km/h 52% 0.00in /  0mm meteobridge W/m2
12:19 58.5 °F /  14.7 °C 40.8 °F /  4.9 °C 30.27in /  1024.9hPa East 0.9mph /  1.4km/h 8.0mph /  12.9km/h 52% 0.00in /  0mm meteobridge W/m2
12:24 58.6 °F /  14.8 °C 41.0 °F /  5 °C 30.26in /  1024.6hPa Calm   2.0mph /  3.2km/h 52% 0.00in /  0mm meteobridge W/m2
12:29 59.2 °F /  15.1 °C 42.1 °F /  5.6 °C 30.26in /  1024.6hPa East 0.9mph /  1.4km/h 1.0mph /  1.6km/h 53% 0.00in /  0mm meteobridge W/m2
12:34 59.5 °F /  15.3 °C 41.4 °F /  5.2 °C 30.26in /  1024.6hPa SE 0.9mph /  1.4km/h 6.0mph /  9.7km/h 51% 0.00in /  0mm meteobridge W/m2
12:39 59.7 °F /  15.4 °C 41.5 °F /  5.3 °C 30.26in /  1024.6hPa SE 4.9mph /  7.9km/h 7.0mph /  11.3km/h 51% 0.00in /  0mm meteobridge W/m2
12:44 59.7 °F /  15.4 °C 41.5 °F /  5.3 °C 30.26in /  1024.6hPa ESE 2.0mph /  3.2km/h 4.0mph /  6.4km/h 51% 0.00in /  0mm meteobridge W/m2
12:49 59.7 °F /  15.4 °C 41.5 °F /  5.3 °C 30.26in /  1024.6hPa ESE 4.9mph /  7.9km/h 8.0mph /  12.9km/h 51% 0.00in /  0mm meteobridge W/m2
12:54 59.7 °F /  15.4 °C 41.0 °F /  5 °C 30.26in /  1024.6hPa SE 4.9mph /  7.9km/h 7.0mph /  11.3km/h 50% 0.00in /  0mm meteobridge W/m2
12:59 59.7 °F /  15.4 °C 41.5 °F /  5.3 °C 30.25in /  1024.3hPa SE 4.9mph /  7.9km/h 5.0mph /  8km/h 51% 0.00in /  0mm meteobridge W/m2
13:04 59.7 °F /  15.4 °C 41.5 °F /  5.3 °C 30.24in /  1023.9hPa ESE 2.0mph /  3.2km/h 6.0mph /  9.7km/h 51% 0.00in /  0mm meteobridge W/m2
13:09 59.7 °F /  15.4 °C 41.0 °F /  5 °C 30.24in /  1023.9hPa SE 0.9mph /  1.4km/h 8.0mph /  12.9km/h 50% 0.00in /  0mm meteobridge W/m2
13:14 59.7 °F /  15.4 °C 40.5 °F /  4.7 °C 30.24in /  1023.9hPa SSE 4.0mph /  6.4km/h 8.0mph /  12.9km/h 49% 0.00in /  0mm meteobridge W/m2
13:19 60.1 °F /  15.6 °C 41.4 °F /  5.2 °C 30.24in /  1023.9hPa Calm     50% 0.00in /  0mm meteobridge W/m2
13:24 60.3 °F /  15.7 °C 41.5 °F /  5.3 °C 30.24in /  1023.9hPa Calm     50% 0.00in /  0mm meteobridge W/m2
13:29 60.3 °F /  15.7 °C 40.5 °F /  4.7 °C 30.23in /  1023.6hPa Calm     48% 0.00in /  0mm meteobridge W/m2
13:34 60.3 °F /  15.7 °C 41.5 °F /  5.3 °C 30.23in /  1023.6hPa Calm     50% 0.00in /  0mm meteobridge W/m2
13:39 60.6 °F /  15.9 °C 41.9 °F /  5.5 °C 30.23in /  1023.6hPa Calm     50% 0.00in /  0mm meteobridge W/m2
13:44 61.0 °F /  16.1 °C 41.7 °F /  5.4 °C 30.23in /  1023.6hPa Calm     49% 0.00in /  0mm meteobridge W/m2
13:49 61.2 °F /  16.2 °C 41.9 °F /  5.5 °C 30.23in /  1023.6hPa Calm     49% 0.00in /  0mm meteobridge W/m2
13:54 61.0 °F /  16.1 °C 41.2 °F /  5.1 °C 30.23in /  1023.6hPa Calm     48% 0.00in /  0mm meteobridge W/m2
13:59 61.3 °F /  16.3 °C 41.5 °F /  5.3 °C 30.22in /  1023.2hPa Calm     48% 0.00in /  0mm meteobridge W/m2
14:04 61.7 °F /  16.5 °C 40.1 °F /  4.5 °C 30.22in /  1023.2hPa Calm     45% 0.00in /  0mm meteobridge W/m2
14:09 61.5 °F /  16.4 °C 40.5 °F /  4.7 °C 30.22in /  1023.2hPa Calm     46% 0.00in /  0mm meteobridge W/m2
14:14 61.5 °F /  16.4 °C 40.5 °F /  4.7 °C 30.22in /  1023.2hPa Calm     46% 0.00in /  0mm meteobridge W/m2
14:19 62.1 °F /  16.7 °C 42.1 °F /  5.6 °C 30.22in /  1023.2hPa Calm     48% 0.00in /  0mm meteobridge W/m2
14:24 62.2 °F /  16.8 °C 40.1 °F /  4.5 °C 30.22in /  1023.2hPa Calm     44% 0.00in /  0mm meteobridge W/m2
14:29 62.6 °F /  17 °C 40.5 °F /  4.7 °C 30.22in /  1023.2hPa Calm     44% 0.00in /  0mm meteobridge W/m2
14:34 63.0 °F /  17.2 °C 40.6 °F /  4.8 °C 30.21in /  1022.9hPa Calm     44% 0.00in /  0mm meteobridge W/m2
14:39 63.1 °F /  17.3 °C 41.5 °F /  5.3 °C 30.20in /  1022.6hPa Calm     45% 0.00in /  0mm meteobridge W/m2
14:44 63.1 °F /  17.3 °C 40.3 °F /  4.6 °C 30.21in /  1022.9hPa Calm     43% 0.00in /  0mm meteobridge W/m2
14:49 62.8 °F /  17.1 °C 39.9 °F /  4.4 °C 30.20in /  1022.6hPa Calm     43% 0.00in /  0mm meteobridge W/m2
14:54 62.8 °F /  17.1 °C 39.9 °F /  4.4 °C 30.20in /  1022.6hPa Calm     43% 0.00in /  0mm meteobridge W/m2
14:59 63.0 °F /  17.2 °C 40.6 °F /  4.8 °C 30.20in /  1022.6hPa Calm     44% 0.00in /  0mm meteobridge W/m2
15:04 63.0 °F /  17.2 °C 40.6 °F /  4.8 °C 30.20in /  1022.6hPa Calm     44% 0.00in /  0mm meteobridge W/m2
15:09 62.8 °F /  17.1 °C 41.2 °F /  5.1 °C 30.19in /  1022.2hPa Calm     45% 0.00in /  0mm meteobridge W/m2
15:14 62.8 °F /  17.1 °C 39.9 °F /  4.4 °C 30.19in /  1022.2hPa Calm     43% 0.00in /  0mm meteobridge W/m2
15:19 62.4 °F /  16.9 °C 39.6 °F /  4.2 °C 30.19in /  1022.2hPa Calm     43% 0.00in /  0mm meteobridge W/m2
15:24 62.8 °F /  17.1 °C 40.5 °F /  4.7 °C 30.19in /  1022.2hPa Calm     44% 0.00in /  0mm meteobridge W/m2
15:29 63.1 °F /  17.3 °C 40.8 °F /  4.9 °C 30.19in /  1022.2hPa Calm     44% 0.00in /  0mm meteobridge W/m2
15:34 63.3 °F /  17.4 °C 39.9 °F /  4.4 °C 30.19in /  1022.2hPa Calm     42% 0.00in /  0mm meteobridge W/m2
15:39 63.1 °F /  17.3 °C 40.3 °F /  4.6 °C 30.19in /  1022.2hPa Calm     43% 0.00in /  0mm meteobridge W/m2
15:44 63.0 °F /  17.2 °C 40.6 °F /  4.8 °C 30.19in /  1022.2hPa Calm     44% 0.00in /  0mm meteobridge W/m2
15:49 63.1 °F /  17.3 °C 40.8 °F /  4.9 °C 30.18in /  1021.9hPa Calm     44% 0.00in /  0mm meteobridge W/m2
15:54 63.1 °F /  17.3 °C 40.3 °F /  4.6 °C 30.18in /  1021.9hPa Calm     43% 0.00in /  0mm meteobridge W/m2
15:59 63.1 °F /  17.3 °C 40.3 °F /  4.6 °C 30.18in /  1021.9hPa Calm     43% 0.00in /  0mm meteobridge W/m2
16:04 63.1 °F /  17.3 °C 39.7 °F /  4.3 °C 30.18in /  1021.9hPa Calm     42% 0.00in /  0mm meteobridge W/m2
16:09 63.3 °F /  17.4 °C 40.5 °F /  4.7 °C 30.18in /  1021.9hPa Calm     43% 0.00in /  0mm meteobridge W/m2
16:14 63.3 °F /  17.4 °C 39.9 °F /  4.4 °C 30.18in /  1021.9hPa Calm     42% 0.00in /  0mm meteobridge W/m2
16:19 63.3 °F /  17.4 °C 41.0 °F /  5 °C 30.18in /  1021.9hPa Calm     44% 0.00in /  0mm meteobridge W/m2
16:24 63.3 °F /  17.4 °C 39.9 °F /  4.4 °C 30.18in /  1021.9hPa Calm     42% 0.00in /  0mm meteobridge W/m2
16:29 63.1 °F /  17.3 °C 40.3 °F /  4.6 °C 30.18in /  1021.9hPa Calm     43% 0.00in /  0mm meteobridge W/m2
16:34 63.0 °F /  17.2 °C 39.6 °F /  4.2 °C 30.18in /  1021.9hPa Calm     42% 0.00in /  0mm meteobridge W/m2
16:39 63.1 °F /  17.3 °C 39.7 °F /  4.3 °C 30.18in /  1021.9hPa Calm     42% 0.00in /  0mm meteobridge W/m2
16:44 63.1 °F /  17.3 °C 39.7 °F /  4.3 °C 30.18in /  1021.9hPa Calm     42% 0.00in /  0mm meteobridge W/m2
16:49 63.1 °F /  17.3 °C 40.3 °F /  4.6 °C 30.17in /  1021.6hPa Calm     43% 0.00in /  0mm meteobridge W/m2
16:54 63.1 °F /  17.3 °C 39.7 °F /  4.3 °C 30.17in /  1021.6hPa Calm     42% 0.00in /  0mm meteobridge W/m2
16:59 63.1 °F /  17.3 °C 39.0 °F /  3.9 °C 30.17in /  1021.6hPa Calm     41% 0.00in /  0mm meteobridge W/m2
17:04 63.3 °F /  17.4 °C 39.2 °F /  4 °C 30.17in /  1021.6hPa Calm     41% 0.00in /  0mm meteobridge W/m2
17:09 63.5 °F /  17.5 °C 39.9 °F /  4.4 °C 30.16in /  1021.2hPa Calm     42% 0.00in /  0mm meteobridge W/m2
17:14 63.7 °F /  17.6 °C 38.8 °F /  3.8 °C 30.17in /  1021.6hPa Calm     40% 0.00in /  0mm meteobridge W/m2
17:19 63.7 °F /  17.6 °C 40.1 °F /  4.5 °C 30.17in /  1021.6hPa Calm     42% 0.00in /  0mm meteobridge W/m2
17:24 63.5 °F /  17.5 °C 39.4 °F /  4.1 °C 30.17in /  1021.6hPa Calm     41% 0.00in /  0mm meteobridge W/m2
17:29 63.3 °F /  17.4 °C 39.2 °F /  4 °C 30.17in /  1021.6hPa Calm     41% 0.00in /  0mm meteobridge W/m2
17:34 63.1 °F /  17.3 °C 39.7 °F /  4.3 °C 30.17in /  1021.6hPa Calm     42% 0.00in /  0mm meteobridge W/m2
17:39 63.0 °F /  17.2 °C 39.6 °F /  4.2 °C 30.16in /  1021.2hPa Calm     42% 0.00in /  0mm meteobridge W/m2
17:44 62.8 °F /  17.1 °C 39.4 °F /  4.1 °C 30.16in /  1021.2hPa Calm     42% 0.00in /  0mm meteobridge W/m2
17:49 62.6 °F /  17 °C 39.2 °F /  4 °C 30.17in /  1021.6hPa Calm     42% 0.00in /  0mm meteobridge W/m2
17:54 62.4 °F /  16.9 °C 37.8 °F /  3.2 °C 30.17in /  1021.6hPa Calm     40% 0.00in /  0mm meteobridge W/m2
17:59 62.4 °F /  16.9 °C 38.5 °F /  3.6 °C 30.16in /  1021.2hPa Calm     41% 0.00in /  0mm meteobridge W/m2
18:04 62.4 °F /  16.9 °C 38.5 °F /  3.6 °C 30.16in /  1021.2hPa Calm     41% 0.00in /  0mm meteobridge W/m2
18:09 62.6 °F /  17 °C 38.5 °F /  3.6 °C 30.16in /  1021.2hPa Calm     41% 0.00in /  0mm meteobridge W/m2
18:14 62.4 °F /  16.9 °C 38.5 °F /  3.6 °C 30.16in /  1021.2hPa Calm     41% 0.00in /  0mm meteobridge W/m2
18:19 62.4 °F /  16.9 °C 39.6 °F /  4.2 °C 30.16in /  1021.2hPa Calm     43% 0.00in /  0mm meteobridge W/m2
18:24 62.2 °F /  16.8 °C 39.4 °F /  4.1 °C 30.16in /  1021.2hPa Calm     43% 0.00in /  0mm meteobridge W/m2
18:29 62.2 °F /  16.8 °C 38.8 °F /  3.8 °C 30.16in /  1021.2hPa Calm     42% 0.00in /  0mm meteobridge W/m2
18:34 62.2 °F /  16.8 °C 38.8 °F /  3.8 °C 30.16in /  1021.2hPa Calm     42% 0.00in /  0mm meteobridge W/m2
18:39 62.2 °F /  16.8 °C 37.6 °F /  3.1 °C 30.16in /  1021.2hPa Calm     40% 0.00in /  0mm meteobridge W/m2
18:44 62.2 °F /  16.8 °C 37.6 °F /  3.1 °C 30.16in /  1021.2hPa Calm     40% 0.00in /  0mm meteobridge W/m2
18:49 62.1 °F /  16.7 °C 37.4 °F /  3 °C 30.16in /  1021.2hPa Calm     40% 0.00in /  0mm meteobridge W/m2
18:54 62.1 °F /  16.7 °C 37.4 °F /  3 °C 30.16in /  1021.2hPa Calm     40% 0.00in /  0mm meteobridge W/m2
18:59 61.9 °F /  16.6 °C 37.9 °F /  3.3 °C 30.16in /  1021.2hPa Calm     41% 0.00in /  0mm meteobridge W/m2
19:04 61.7 °F /  16.5 °C 37.8 °F /  3.2 °C 30.16in /  1021.2hPa Calm     41% 0.00in /  0mm meteobridge W/m2
19:09 61.5 °F /  16.4 °C 37.6 °F /  3.1 °C 30.16in /  1021.2hPa Calm     41% 0.00in /  0mm meteobridge W/m2
19:14 61.5 °F /  16.4 °C 37.0 °F /  2.8 °C 30.16in /  1021.2hPa Calm     40% 0.00in /  0mm meteobridge W/m2
19:19 61.5 °F /  16.4 °C 37.6 °F /  3.1 °C 30.16in /  1021.2hPa Calm     41% 0.00in /  0mm meteobridge W/m2
19:24 61.3 °F /  16.3 °C 37.4 °F /  3 °C 30.16in /  1021.2hPa Calm     41% 0.00in /  0mm meteobridge W/m2
19:29 61.2 °F /  16.2 °C 37.2 °F /  2.9 °C 30.16in /  1021.2hPa Calm     41% 0.00in /  0mm meteobridge W/m2
19:34 61.0 °F /  16.1 °C 37.0 °F /  2.8 °C 30.16in /  1021.2hPa Calm     41% 0.00in /  0mm meteobridge W/m2
19:39 60.6 °F /  15.9 °C 37.4 °F /  3 °C 30.16in /  1021.2hPa Calm     42% 0.00in /  0mm meteobridge W/m2
19:44 60.4 °F /  15.8 °C 37.8 °F /  3.2 °C 30.16in /  1021.2hPa Calm     43% 0.00in /  0mm meteobridge W/m2
19:49 60.3 °F /  15.7 °C 37.8 °F /  3.2 °C 30.16in /  1021.2hPa Calm     43% 0.00in /  0mm meteobridge W/m2
19:54 60.1 °F /  15.6 °C 37.6 °F /  3.1 °C 30.16in /  1021.2hPa Calm     43% 0.00in /  0mm meteobridge W/m2
19:59 59.9 °F /  15.5 °C 38.5 °F /  3.6 °C 30.16in /  1021.2hPa Calm     45% 0.00in /  0mm meteobridge W/m2
20:04 59.7 °F /  15.4 °C 38.3 °F /  3.5 °C 30.16in /  1021.2hPa Calm     45% 0.00in /  0mm meteobridge W/m2
20:09 59.5 °F /  15.3 °C 38.1 °F /  3.4 °C 30.16in /  1021.2hPa Calm     45% 0.00in /  0mm meteobridge W/m2
20:14 59.5 °F /  15.3 °C 37.6 °F /  3.1 °C 30.16in /  1021.2hPa Calm     44% 0.00in /  0mm meteobridge W/m2
20:19 59.4 °F /  15.2 °C 37.9 °F /  3.3 °C 30.16in /  1021.2hPa Calm     45% 0.00in /  0mm meteobridge W/m2
20:24 59.4 °F /  15.2 °C 37.4 °F /  3 °C 30.16in /  1021.2hPa Calm     44% 0.00in /  0mm meteobridge W/m2
20:29 59.4 °F /  15.2 °C 37.4 °F /  3 °C 30.16in /  1021.2hPa Calm     44% 0.00in /  0mm meteobridge W/m2
20:34 59.4 °F /  15.2 °C 36.9 °F /  2.7 °C 30.16in /  1021.2hPa Calm     43% 0.00in /  0mm meteobridge W/m2
20:39 59.2 °F /  15.1 °C 36.7 °F /  2.6 °C 30.16in /  1021.2hPa Calm     43% 0.00in /  0mm meteobridge W/m2
20:44 59.0 °F /  15 °C 37.0 °F /  2.8 °C 30.16in /  1021.2hPa Calm     44% 0.00in /  0mm meteobridge W/m2
20:49 58.8 °F /  14.9 °C 37.0 °F /  2.8 °C 30.16in /  1021.2hPa Calm     44% 0.00in /  0mm meteobridge W/m2
20:54 58.8 °F /  14.9 °C 37.0 °F /  2.8 °C 30.16in /  1021.2hPa Calm     44% 0.00in /  0mm meteobridge W/m2
20:59 58.8 °F /  14.9 °C 37.0 °F /  2.8 °C 30.16in /  1021.2hPa Calm     44% 0.00in /  0mm meteobridge W/m2
21:04 58.6 °F /  14.8 °C 36.9 °F /  2.7 °C 30.16in /  1021.2hPa Calm     44% 0.00in /  0mm meteobridge W/m2
21:09 58.6 °F /  14.8 °C 37.4 °F /  3 °C 30.16in /  1021.2hPa Calm     45% 0.00in /  0mm meteobridge W/m2
21:14 58.3 °F /  14.6 °C 37.0 °F /  2.8 °C 30.16in /  1021.2hPa Calm     45% 0.00in /  0mm meteobridge W/m2
21:19 58.3 °F /  14.6 °C 37.6 °F /  3.1 °C 30.17in /  1021.6hPa Calm     46% 0.00in /  0mm meteobridge W/m2
21:24 57.9 °F /  14.4 °C 36.1 °F /  2.3 °C 30.17in /  1021.6hPa Calm     44% 0.00in /  0mm meteobridge W/m2
21:29 57.9 °F /  14.4 °C 36.1 °F /  2.3 °C 30.17in /  1021.6hPa Calm     44% 0.00in /  0mm meteobridge W/m2
21:34 57.9 °F /  14.4 °C 35.6 °F /  2 °C 30.17in /  1021.6hPa Calm     43% 0.00in /  0mm meteobridge W/m2
21:39 57.9 °F /  14.4 °C 35.6 °F /  2 °C 30.17in /  1021.6hPa Calm     43% 0.00in /  0mm meteobridge W/m2
21:44 58.1 °F /  14.5 °C 35.1 °F /  1.7 °C 30.17in /  1021.6hPa Calm     42% 0.00in /  0mm meteobridge W/m2
21:49 57.9 °F /  14.4 °C 34.9 °F /  1.6 °C 30.17in /  1021.6hPa Calm     42% 0.00in /  0mm meteobridge W/m2
21:54 57.9 °F /  14.4 °C 34.9 °F /  1.6 °C 30.17in /  1021.6hPa Calm     42% 0.00in /  0mm meteobridge W/m2
21:59 58.1 °F /  14.5 °C 35.1 °F /  1.7 °C 30.17in /  1021.6hPa Calm     42% 0.00in /  0mm meteobridge W/m2
22:04 58.1 °F /  14.5 °C 35.1 °F /  1.7 °C 30.17in /  1021.6hPa Calm     42% 0.00in /  0mm meteobridge W/m2
22:09 57.9 °F /  14.4 °C 34.9 °F /  1.6 °C 30.17in /  1021.6hPa Calm     42% 0.00in /  0mm meteobridge W/m2
22:14 57.9 °F /  14.4 °C 34.9 °F /  1.6 °C 30.17in /  1021.6hPa Calm     42% 0.00in /  0mm meteobridge W/m2
22:19 57.9 °F /  14.4 °C 34.9 °F /  1.6 °C 30.17in /  1021.6hPa Calm     42% 0.00in /  0mm meteobridge W/m2
22:24 57.9 °F /  14.4 °C 34.9 °F /  1.6 °C 30.17in /  1021.6hPa Calm     42% 0.00in /  0mm meteobridge W/m2
22:29 57.7 °F /  14.3 °C 34.9 °F /  1.6 °C 30.17in /  1021.6hPa Calm     42% 0.00in /  0mm meteobridge W/m2
22:34 57.7 °F /  14.3 °C 34.9 °F /  1.6 °C 30.17in /  1021.6hPa Calm     42% 0.00in /  0mm meteobridge W/m2
22:39 57.7 °F /  14.3 °C 34.9 °F /  1.6 °C 30.17in /  1021.6hPa Calm     42% 0.00in /  0mm meteobridge W/m2
22:44 57.6 °F /  14.2 °C 35.2 °F /  1.8 °C 30.17in /  1021.6hPa Calm     43% 0.00in /  0mm meteobridge W/m2
22:49 57.6 °F /  14.2 °C 35.2 °F /  1.8 °C 30.17in /  1021.6hPa Calm     43% 0.00in /  0mm meteobridge W/m2
22:54 57.6 °F /  14.2 °C 35.2 °F /  1.8 °C 30.17in /  1021.6hPa Calm     43% 0.00in /  0mm meteobridge W/m2
22:59 57.6 °F /  14.2 °C 35.8 °F /  2.1 °C 30.17in /  1021.6hPa Calm     44% 0.00in /  0mm meteobridge W/m2
23:04 57.4 °F /  14.1 °C 35.6 °F /  2 °C 30.18in /  1021.9hPa Calm     44% 0.00in /  0mm meteobridge W/m2
23:09 57.4 °F /  14.1 °C 35.6 °F /  2 °C 30.17in /  1021.6hPa Calm     44% 0.00in /  0mm meteobridge W/m2
23:14 57.4 °F /  14.1 °C 36.1 °F /  2.3 °C 30.17in /  1021.6hPa Calm     45% 0.00in /  0mm meteobridge W/m2
23:19 57.4 °F /  14.1 °C 36.1 °F /  2.3 °C 30.17in /  1021.6hPa Calm     45% 0.00in /  0mm meteobridge W/m2
23:24 57.4 °F /  14.1 °C 36.7 °F /  2.6 °C 30.17in /  1021.6hPa Calm     46% 0.00in /  0mm meteobridge W/m2
23:29 57.6 °F /  14.2 °C 36.9 °F /  2.7 °C 30.17in /  1021.6hPa Calm     46% 0.00in /  0mm meteobridge W/m2
23:34 57.6 °F /  14.2 °C 37.4 °F /  3 °C 30.17in /  1021.6hPa Calm     47% 0.00in /  0mm meteobridge W/m2
23:39 57.6 °F /  14.2 °C 37.4 °F /  3 °C 30.18in /  1021.9hPa Calm     47% 0.00in /  0mm meteobridge W/m2
23:44 57.6 °F /  14.2 °C 37.4 °F /  3 °C 30.18in /  1021.9hPa Calm     47% 0.00in /  0mm meteobridge W/m2
23:49 57.6 °F /  14.2 °C 37.9 °F /  3.3 °C 30.18in /  1021.9hPa Calm     48% 0.00in /  0mm meteobridge W/m2
23:54 57.6 °F /  14.2 °C 39.0 °F /  3.9 °C 30.18in /  1021.9hPa Calm     50% 0.00in /  0mm meteobridge W/m2
23:59 57.7 °F /  14.3 °C 38.7 °F /  3.7 °C 30.18in /  1021.9hPa Calm     49% 0.00in /  0mm meteobridge W/m2
EllijayWeather
Compliments of Weather Underground - 2.5 mb